createdAt,value
2023-04-12T00:01:09.087Z,60.40
2023-04-12T00:03:36.355Z,61.05
2023-04-12T00:06:03.744Z,61.36
2023-04-12T00:08:33.764Z,61.58
2023-04-12T00:11:03.753Z,61.51
2023-04-12T00:13:30.989Z,61.97
2023-04-12T00:15:58.041Z,62.31
2023-04-12T00:18:25.599Z,62.58
2023-04-12T00:20:53.202Z,62.31
2023-04-12T00:23:20.598Z,62.12
2023-04-12T00:25:47.777Z,62.48
2023-04-12T00:28:15.934Z,62.39
2023-04-12T00:30:43.198Z,62.41
2023-04-12T00:33:10.051Z,62.28
2023-04-12T00:35:37.073Z,62.09
2023-04-12T00:38:06.141Z,61.78
2023-04-12T00:40:33.186Z,61.20
2023-04-12T00:43:00.611Z,60.64
2023-04-12T00:45:27.712Z,60.75
2023-04-12T00:47:56.439Z,61.00
2023-04-12T00:50:24.036Z,61.32
2023-04-12T00:52:52.906Z,61.00
2023-04-12T00:55:20.034Z,61.30
2023-04-12T00:57:46.941Z,60.67
2023-04-12T01:00:14.188Z,60.37
2023-04-12T01:02:50.574Z,59.98
2023-04-12T01:05:23.460Z,59.89
2023-04-12T01:08:12.111Z,59.68
2023-04-12T01:10:50.016Z,59.59
2023-04-12T01:13:40.711Z,59.84
2023-04-12T01:16:46.145Z,59.75
2023-04-12T01:19:34.183Z,60.10
2023-04-12T01:22:46.070Z,59.01
2023-04-12T01:25:39.538Z,59.68
2023-04-12T01:28:10.684Z,60.33
2023-04-12T01:30:39.524Z,60.38
2023-04-12T01:33:10.844Z,60.87
2023-04-12T01:35:38.275Z,60.55
2023-04-12T01:38:06.596Z,60.70
2023-04-12T01:40:33.555Z,60.80
2023-04-12T01:43:12.315Z,60.34
2023-04-12T01:45:39.694Z,60.22
2023-04-12T01:48:10.115Z,60.23
2023-04-12T01:51:11.719Z,60.18
2023-04-12T01:54:11.023Z,60.37
2023-04-12T01:56:41.909Z,60.19
2023-04-12T01:59:10.132Z,60.07
2023-04-12T02:01:37.479Z,59.87
2023-04-12T02:04:06.469Z,60.29
2023-04-12T02:06:34.151Z,59.99
2023-04-12T02:09:03.736Z,60.02
2023-04-12T02:11:30.773Z,60.13
2023-04-12T02:13:58.074Z,60.33
2023-04-12T02:16:25.350Z,61.12
2023-04-12T02:18:52.214Z,61.16
2023-04-12T02:21:19.149Z,61.29
2023-04-12T02:23:45.973Z,61.21
2023-04-12T02:26:13.058Z,61.77
2023-04-12T02:28:39.886Z,61.92
2023-04-12T02:31:07.356Z,62.35
2023-04-12T02:33:34.771Z,62.44
2023-04-12T02:36:02.697Z,62.32
2023-04-12T02:38:30.179Z,62.29
2023-04-12T02:40:57.381Z,62.34
2023-04-12T02:43:24.185Z,62.40
2023-04-12T02:45:51.155Z,62.50
2023-04-12T02:48:18.002Z,62.05
2023-04-12T02:50:44.847Z,61.59
2023-04-12T02:53:11.664Z,61.25
2023-04-12T02:55:38.971Z,61.92
2023-04-12T02:58:06.028Z,61.94
2023-04-12T03:00:33.081Z,62.07
2023-04-12T03:03:03.060Z,61.68
2023-04-12T03:05:30.211Z,61.46
2023-04-12T03:07:57.052Z,61.81
2023-04-12T03:10:23.964Z,62.42
2023-04-12T03:12:50.998Z,61.60
2023-04-12T03:15:18.024Z,62.05
2023-04-12T03:17:44.985Z,62.36
2023-04-12T03:20:13.501Z,62.51
2023-04-12T03:22:40.417Z,62.52
2023-04-12T03:25:09.661Z,62.00
2023-04-12T03:27:36.525Z,62.69
2023-04-12T03:30:03.992Z,62.87
2023-04-12T03:32:30.950Z,62.51
2023-04-12T03:34:57.872Z,63.44
2023-04-12T03:37:24.815Z,63.69
2023-04-12T03:39:51.683Z,63.41
2023-04-12T03:42:31.678Z,64.44
2023-04-12T03:44:59.600Z,64.08
2023-04-12T03:47:26.441Z,64.65
2023-04-12T03:50:10.317Z,64.80
2023-04-12T03:52:38.536Z,64.51
2023-04-12T03:55:07.341Z,64.17
2023-04-12T03:57:34.820Z,64.03
2023-04-12T04:00:02.415Z,63.81
2023-04-12T04:02:29.431Z,63.79
2023-04-12T04:04:56.481Z,64.04
2023-04-12T04:07:23.464Z,63.90
2023-04-12T04:09:50.438Z,63.77
2023-04-12T04:12:17.362Z,63.94
2023-04-12T04:14:44.417Z,63.94
2023-04-12T04:17:11.272Z,63.52
2023-04-12T04:19:38.579Z,63.69
2023-04-12T04:22:05.443Z,64.02
2023-04-12T04:24:34.217Z,64.14
2023-04-12T04:27:01.034Z,64.27
2023-04-12T04:29:29.136Z,64.22
2023-04-12T04:31:57.422Z,63.95
2023-04-12T04:34:25.500Z,63.84
2023-04-12T04:36:52.806Z,64.39
2023-04-12T04:39:19.906Z,64.73
2023-04-12T04:41:46.852Z,64.57
2023-04-12T04:44:14.262Z,64.69
2023-04-12T04:46:41.339Z,64.75
2023-04-12T04:49:08.149Z,64.84
2023-04-12T04:51:35.051Z,64.60
2023-04-12T04:54:02.283Z,64.55
2023-04-12T04:56:29.257Z,64.41
2023-04-12T04:58:57.143Z,64.42
2023-04-12T05:01:28.505Z,64.42
2023-04-12T05:03:56.053Z,64.49
2023-04-12T05:06:23.482Z,64.44
2023-04-12T05:08:52.440Z,64.34
2023-04-12T05:11:20.514Z,64.47
2023-04-12T05:13:47.341Z,64.36
2023-04-12T05:16:14.241Z,64.11
2023-04-12T05:18:41.177Z,64.14
2023-04-12T05:21:08.260Z,64.04
2023-04-12T05:23:44.823Z,63.68
2023-04-12T05:26:11.983Z,63.91
2023-04-12T05:28:38.926Z,63.91
2023-04-12T05:31:06.222Z,64.34
2023-04-12T05:33:34.624Z,64.31
2023-04-12T05:36:02.082Z,64.88
2023-04-12T05:38:28.981Z,64.60
2023-04-12T05:40:55.855Z,64.73
2023-04-12T05:43:22.657Z,64.49
2023-04-12T05:45:51.391Z,64.25
2023-04-12T05:48:19.174Z,64.18
2023-04-12T05:50:53.670Z,63.77
2023-04-12T05:53:21.860Z,63.35
2023-04-12T05:55:48.758Z,63.51
2023-04-12T05:58:15.685Z,63.85
2023-04-12T06:00:42.542Z,64.47
2023-04-12T06:03:11.604Z,64.10
2023-04-12T06:05:39.306Z,64.01
2023-04-12T06:08:08.311Z,63.68
2023-04-12T06:10:35.342Z,63.48
2023-04-12T06:13:02.263Z,63.78
2023-04-12T06:15:31.831Z,63.43
2023-04-12T06:17:59.798Z,63.00
2023-04-12T06:20:27.006Z,62.72
2023-04-12T06:22:53.960Z,62.77
2023-04-12T06:25:21.321Z,62.71
2023-04-12T06:27:48.145Z,62.93
2023-04-12T06:30:15.095Z,63.09
2023-04-12T06:32:42.355Z,62.55
2023-04-12T06:35:09.424Z,62.76
2023-04-12T06:37:36.336Z,62.32
2023-04-12T06:40:03.223Z,61.67
2023-04-12T06:42:30.249Z,61.93
2023-04-12T06:44:57.102Z,62.15
2023-04-12T06:47:25.390Z,62.54
2023-04-12T06:49:56.098Z,62.18
2023-04-12T06:52:26.742Z,62.03
2023-04-12T06:54:56.096Z,61.84
2023-04-12T06:57:23.418Z,61.95
2023-04-12T06:59:50.496Z,61.51
2023-04-12T07:02:17.541Z,61.59
2023-04-12T07:04:44.431Z,60.78
2023-04-12T07:07:11.429Z,61.57
2023-04-12T07:09:38.290Z,61.39
2023-04-12T07:12:05.482Z,60.73
2023-04-12T07:14:32.337Z,60.73
2023-04-12T07:16:59.162Z,60.85
2023-04-12T07:19:26.066Z,61.07
2023-04-12T07:21:52.913Z,59.71
2023-04-12T07:24:19.678Z,60.18
2023-04-12T07:26:46.661Z,60.05
2023-04-12T07:29:13.505Z,59.84
2023-04-12T07:31:40.424Z,60.13
2023-04-12T07:34:07.361Z,60.57
2023-04-12T07:36:34.312Z,60.07
2023-04-12T07:39:01.171Z,60.17
2023-04-12T07:41:28.745Z,61.97
2023-04-12T07:43:55.761Z,60.79
2023-04-12T07:46:22.877Z,59.45
2023-04-12T07:48:51.050Z,59.46
2023-04-12T07:51:18.010Z,59.44
2023-04-12T07:53:48.199Z,59.74
2023-04-12T07:56:15.901Z,59.68
2023-04-12T07:58:42.785Z,60.21
2023-04-12T08:01:12.261Z,59.90
2023-04-12T08:03:39.201Z,58.47
2023-04-12T08:06:06.695Z,58.66
2023-04-12T08:08:33.785Z,58.61
2023-04-12T08:11:02.805Z,59.60
2023-04-12T08:13:29.692Z,58.31
2023-04-12T08:15:56.534Z,58.35
2023-04-12T08:18:23.404Z,59.36
2023-04-12T08:20:50.245Z,58.80
2023-04-12T08:23:18.186Z,58.97
2023-04-12T08:25:45.160Z,58.55
2023-04-12T08:28:12.402Z,59.47
2023-04-12T08:30:39.307Z,59.54
2023-04-12T08:33:06.511Z,59.39
2023-04-12T08:35:33.799Z,59.20
2023-04-12T08:38:06.722Z,59.50
2023-04-12T08:40:34.162Z,59.78
2023-04-12T08:43:05.766Z,60.12
2023-04-12T08:45:35.325Z,60.55
2023-04-12T08:48:04.524Z,60.83
2023-04-12T08:50:32.428Z,61.00
2023-04-12T08:52:59.922Z,60.14
2023-04-12T08:55:26.757Z,60.04
2023-04-12T08:57:58.815Z,60.64
2023-04-12T09:00:26.663Z,59.12
2023-04-12T09:02:53.697Z,59.06
2023-04-12T09:05:23.061Z,59.92
2023-04-12T09:07:50.042Z,59.43
2023-04-12T09:10:37.953Z,60.34
2023-04-12T09:13:05.835Z,60.21
2023-04-12T09:15:34.025Z,60.08
2023-04-12T09:18:09.087Z,60.48
2023-04-12T09:20:37.171Z,59.58
2023-04-12T09:23:36.146Z,59.00
2023-04-12T09:26:03.459Z,59.23
2023-04-12T09:28:31.331Z,59.38
2023-04-12T09:31:00.104Z,60.67
2023-04-12T09:33:36.691Z,62.20
2023-04-12T09:36:06.831Z,60.52
2023-04-12T09:38:36.685Z,60.09
2023-04-12T09:41:26.435Z,59.30
2023-04-12T09:43:53.879Z,58.43
2023-04-12T09:46:20.839Z,58.53
2023-04-12T09:49:03.097Z,57.38
2023-04-12T09:51:32.829Z,56.42
2023-04-12T09:54:03.168Z,55.58
2023-04-12T09:56:34.248Z,57.36
2023-04-12T09:59:03.631Z,55.37
2023-04-12T10:01:36.815Z,56.23
2023-04-12T10:04:06.005Z,55.24
2023-04-12T10:06:41.492Z,54.22
2023-04-12T10:09:08.929Z,54.39
2023-04-12T10:11:37.443Z,54.28
2023-04-12T10:14:06.031Z,54.11
2023-04-12T10:16:35.033Z,52.50
2023-04-12T10:19:04.078Z,54.76
2023-04-12T10:21:31.503Z,54.39
2023-04-12T10:23:58.737Z,54.62
2023-04-12T10:26:26.599Z,53.19
2023-04-12T10:29:31.882Z,54.98
2023-04-12T10:32:20.724Z,54.30
2023-04-12T10:34:58.770Z,54.38
2023-04-12T10:38:01.287Z,53.82
2023-04-12T10:40:33.217Z,52.08
2023-04-12T10:43:18.952Z,51.45
2023-04-12T10:45:46.004Z,51.46
2023-04-12T10:48:34.548Z,51.01
2023-04-12T10:51:26.620Z,51.48
2023-04-12T10:54:14.651Z,50.54
2023-04-12T10:56:46.687Z,50.58
2023-04-12T10:59:14.777Z,52.02
2023-04-12T11:02:03.084Z,53.47
2023-04-12T11:04:30.477Z,51.01
2023-04-12T11:07:01.737Z,50.92
2023-04-12T11:09:34.330Z,51.65
2023-04-12T11:12:04.027Z,50.66
2023-04-12T11:14:36.054Z,50.32
2023-04-12T11:17:06.253Z,49.31
2023-04-12T11:20:04.771Z,49.20
2023-04-12T11:22:33.406Z,49.03
2023-04-12T11:25:02.205Z,48.23
2023-04-12T11:27:31.646Z,48.55
2023-04-12T11:30:00.806Z,49.67
2023-04-12T11:32:30.664Z,48.76
2023-04-12T11:34:58.630Z,49.17
2023-04-12T11:37:27.021Z,48.30
2023-04-12T11:39:57.253Z,47.48
2023-04-12T11:42:26.307Z,46.81
2023-04-12T11:44:57.407Z,46.22
2023-04-12T11:47:26.850Z,45.30
2023-04-12T11:49:59.377Z,47.04
2023-04-12T11:52:32.127Z,48.52
2023-04-12T11:55:06.767Z,49.11
2023-04-12T11:57:34.862Z,48.83
2023-04-12T12:00:05.895Z,49.27
2023-04-12T12:02:41.190Z,49.90
2023-04-12T12:05:16.831Z,50.44
2023-04-12T12:07:44.061Z,50.39
2023-04-12T12:10:11.465Z,50.50
2023-04-12T12:12:38.323Z,50.13
2023-04-12T12:15:06.008Z,49.63
2023-04-12T12:17:38.830Z,49.84
2023-04-12T12:20:06.795Z,49.57
2023-04-12T12:22:34.746Z,50.76
2023-04-12T12:25:01.582Z,52.59
2023-04-12T12:27:38.535Z,52.26
2023-04-12T12:30:09.438Z,52.20
2023-04-12T12:32:39.168Z,51.34
2023-04-12T12:35:14.039Z,51.31
2023-04-12T12:37:52.563Z,51.57
2023-04-12T12:40:34.559Z,50.93
2023-04-12T12:43:01.508Z,51.37
2023-04-12T12:45:31.677Z,54.03
2023-04-12T12:48:00.678Z,52.20
2023-04-12T12:50:30.938Z,51.63
2023-04-12T12:52:59.173Z,50.93
2023-04-12T12:55:26.932Z,50.04
2023-04-12T12:58:07.600Z,49.88
2023-04-12T13:00:35.388Z,50.45
2023-04-12T13:03:03.064Z,49.47
2023-04-12T13:05:30.347Z,50.27
2023-04-12T13:07:57.203Z,51.91
2023-04-12T13:10:24.161Z,50.46
2023-04-12T13:12:51.419Z,49.95
2023-04-12T13:15:23.121Z,49.80
2023-04-12T13:17:53.103Z,50.31
2023-04-12T13:20:20.254Z,50.37
2023-04-12T13:22:47.083Z,50.03
2023-04-12T13:25:14.018Z,49.73
2023-04-12T13:27:40.969Z,49.60
2023-04-12T13:30:08.597Z,50.49
2023-04-12T13:32:35.898Z,48.96
2023-04-12T13:35:04.113Z,49.24
2023-04-12T13:37:31.412Z,49.63
2023-04-12T13:39:58.298Z,49.92
2023-04-12T13:42:25.444Z,50.53
2023-04-12T13:44:52.287Z,50.42
2023-04-12T13:47:19.187Z,49.84
2023-04-12T13:49:46.287Z,48.32
2023-04-12T13:52:13.427Z,47.44
2023-04-12T13:54:41.012Z,49.25
2023-04-12T13:57:08.103Z,47.24
2023-04-12T13:59:35.248Z,47.31
2023-04-12T14:02:02.735Z,47.29
2023-04-12T14:04:31.514Z,46.93
2023-04-12T14:06:59.354Z,47.68
2023-04-12T14:09:31.953Z,47.36
2023-04-12T14:12:01.619Z,47.43
2023-04-12T14:14:28.585Z,48.03
2023-04-12T14:17:01.730Z,48.55
2023-04-12T14:19:28.785Z,48.67
2023-04-12T14:21:55.805Z,48.31
2023-04-12T14:24:23.410Z,50.40
2023-04-12T14:26:51.107Z,49.58
2023-04-12T14:29:17.998Z,50.10
2023-04-12T14:31:44.947Z,49.41
2023-04-12T14:34:13.368Z,50.08
2023-04-12T14:36:40.654Z,50.96
2023-04-12T14:39:10.450Z,52.08
2023-04-12T14:41:38.243Z,51.57
2023-04-12T14:44:05.608Z,51.74
2023-04-12T14:46:32.750Z,51.16
2023-04-12T14:49:01.400Z,50.45
2023-04-12T14:51:29.596Z,50.59
2023-04-12T14:53:57.085Z,50.28
2023-04-12T14:56:28.663Z,50.34
2023-04-12T14:58:57.448Z,50.33
2023-04-12T15:01:25.700Z,51.03
2023-04-12T15:03:53.712Z,51.85
2023-04-12T15:06:23.416Z,51.28
2023-04-12T15:08:55.228Z,50.87
2023-04-12T15:11:26.433Z,51.62
2023-04-12T15:13:53.755Z,50.70
2023-04-12T15:16:20.806Z,49.08
2023-04-12T15:18:47.764Z,49.02
2023-04-12T15:21:14.727Z,49.10
2023-04-12T15:23:41.750Z,49.02
2023-04-12T15:26:12.073Z,48.78
2023-04-12T15:28:39.265Z,49.48
2023-04-12T15:31:07.044Z,49.92
2023-04-12T15:33:37.283Z,49.46
2023-04-12T15:36:05.498Z,47.83
2023-04-12T15:38:32.646Z,47.49
2023-04-12T15:41:01.256Z,47.20
2023-04-12T15:43:28.814Z,46.86
2023-04-12T15:45:56.053Z,45.16
2023-04-12T15:48:24.593Z,47.63
2023-04-12T15:50:53.599Z,46.29
2023-04-12T15:53:25.513Z,46.56
2023-04-12T15:55:55.313Z,47.38
2023-04-12T15:58:23.909Z,46.96
2023-04-12T16:00:52.948Z,46.43
2023-04-12T16:03:23.236Z,47.44
2023-04-12T16:05:53.569Z,47.35
2023-04-12T16:08:21.068Z,47.06
2023-04-12T16:10:49.005Z,48.14
2023-04-12T16:13:16.175Z,48.04
2023-04-12T16:15:43.197Z,48.37
2023-04-12T16:18:10.188Z,47.49
2023-04-12T16:20:37.500Z,46.90
2023-04-12T16:23:05.159Z,47.02
2023-04-12T16:25:33.237Z,46.42
2023-04-12T16:28:02.829Z,47.05
2023-04-12T16:30:32.869Z,47.39
2023-04-12T16:32:59.958Z,47.50
2023-04-12T16:35:26.993Z,49.12
2023-04-12T16:37:54.783Z,48.67
2023-04-12T16:40:22.141Z,48.75
2023-04-12T16:42:49.018Z,48.04
2023-04-12T16:45:15.897Z,48.15
2023-04-12T16:47:45.990Z,48.32
2023-04-12T16:50:13.575Z,48.80
2023-04-12T16:52:41.279Z,48.54
2023-04-12T16:55:12.696Z,48.26
2023-04-12T16:57:41.840Z,47.94
2023-04-12T17:00:19.183Z,47.83
2023-04-12T17:02:49.115Z,49.20
2023-04-12T17:05:18.142Z,49.85
2023-04-12T17:07:50.623Z,48.87
2023-04-12T17:10:23.115Z,48.53
2023-04-12T17:12:52.906Z,48.24
2023-04-12T17:15:23.439Z,49.07
2023-04-12T17:17:59.914Z,48.60
2023-04-12T17:20:27.220Z,48.48
2023-04-12T17:22:55.412Z,48.62
2023-04-12T17:25:24.152Z,48.88
2023-04-12T17:27:53.654Z,48.67
2023-04-12T17:30:20.459Z,48.72
2023-04-12T17:32:47.600Z,49.08
2023-04-12T17:35:14.592Z,49.03
2023-04-12T17:37:41.741Z,48.64
2023-04-12T17:40:12.972Z,49.17
2023-04-12T17:42:41.891Z,49.49
2023-04-12T17:45:14.418Z,49.43
2023-04-12T17:47:42.618Z,49.71
2023-04-12T17:50:11.641Z,49.72
2023-04-12T17:52:38.786Z,50.61
2023-04-12T17:55:09.069Z,50.49
2023-04-12T17:57:35.997Z,49.99
2023-04-12T18:00:03.411Z,49.80
2023-04-12T18:02:30.393Z,49.98
2023-04-12T18:04:57.417Z,50.30
2023-04-12T18:07:24.280Z,50.63
2023-04-12T18:09:51.238Z,50.93
2023-04-12T18:12:18.317Z,50.04
2023-04-12T18:14:45.340Z,50.81
2023-04-12T18:17:12.256Z,51.92
2023-04-12T18:19:39.195Z,51.51
2023-04-12T18:22:08.350Z,52.38
2023-04-12T18:24:36.450Z,52.10
2023-04-12T18:27:05.272Z,51.71
2023-04-12T18:29:32.851Z,51.33
2023-04-12T18:32:00.039Z,51.74
2023-04-12T18:34:27.561Z,51.81
2023-04-12T18:36:54.482Z,51.84
2023-04-12T18:39:24.237Z,51.99
2023-04-12T18:41:51.256Z,51.49
2023-04-12T18:44:19.804Z,50.61
2023-04-12T18:46:46.868Z,50.10
2023-04-12T18:49:14.536Z,50.18
2023-04-12T18:51:42.844Z,50.21
2023-04-12T18:54:15.201Z,51.40
2023-04-12T18:56:44.750Z,49.77
2023-04-12T18:59:15.870Z,50.08
2023-04-12T19:01:42.977Z,50.51
2023-04-12T19:04:12.610Z,51.39
2023-04-12T19:06:39.576Z,51.43
2023-04-12T19:09:06.621Z,50.73
2023-04-12T19:11:36.278Z,51.11
2023-04-12T19:14:03.851Z,52.18
2023-04-12T19:16:30.969Z,52.11
2023-04-12T19:18:59.963Z,52.87
2023-04-12T19:21:29.285Z,53.53
2023-04-12T19:23:56.933Z,54.25
2023-04-12T19:26:24.134Z,54.67
2023-04-12T19:28:55.474Z,55.73
2023-04-12T19:31:23.742Z,54.46
2023-04-12T19:33:50.882Z,54.90
2023-04-12T19:36:17.791Z,56.31
2023-04-12T19:38:47.782Z,57.18
2023-04-12T19:41:16.179Z,58.09
2023-04-12T19:43:43.129Z,58.60
2023-04-12T19:46:10.189Z,58.47
2023-04-12T19:48:37.837Z,60.19
2023-04-12T19:51:05.447Z,60.34
2023-04-12T19:53:33.348Z,60.50
2023-04-12T19:56:00.858Z,60.64
2023-04-12T19:58:27.728Z,61.24
2023-04-12T20:00:55.610Z,60.90
2023-04-12T20:03:23.415Z,61.54
2023-04-12T20:05:52.898Z,61.49
2023-04-12T20:08:19.810Z,61.30
2023-04-12T20:10:46.711Z,63.32
2023-04-12T20:13:15.354Z,62.20
2023-04-12T20:15:43.204Z,62.47
2023-04-12T20:18:12.858Z,62.60
2023-04-12T20:20:44.861Z,62.26
2023-04-12T20:23:15.374Z,62.59
2023-04-12T20:25:42.589Z,62.70
2023-04-12T20:28:09.739Z,62.65
2023-04-12T20:30:37.180Z,62.86
2023-04-12T20:33:04.503Z,61.99
2023-04-12T20:35:31.966Z,62.23
2023-04-12T20:37:59.579Z,61.63
2023-04-12T20:40:29.529Z,62.13
2023-04-12T20:42:59.586Z,62.27
2023-04-12T20:45:27.186Z,63.08
2023-04-12T20:47:54.087Z,63.57
2023-04-12T20:50:23.073Z,63.38
2023-04-12T20:52:52.187Z,63.98
2023-04-12T20:55:19.573Z,64.12
2023-04-12T20:57:46.482Z,68.59
2023-04-12T21:00:23.742Z,69.40
2023-04-12T21:02:50.874Z,68.55
2023-04-12T21:05:17.878Z,68.79
2023-04-12T21:07:46.416Z,68.65
2023-04-12T21:10:13.832Z,68.49
2023-04-12T21:12:41.513Z,69.51
2023-04-12T21:15:11.666Z,69.83
2023-04-12T21:17:39.120Z,70.84
2023-04-12T21:20:13.366Z,70.83
2023-04-12T21:22:42.980Z,71.20
2023-04-12T21:25:16.522Z,71.36
2023-04-12T21:27:45.613Z,71.50
2023-04-12T21:30:13.647Z,71.87
2023-04-12T21:32:41.135Z,71.78
2023-04-12T21:35:09.915Z,71.61
2023-04-12T21:37:38.977Z,71.75
2023-04-12T21:40:09.512Z,72.20
2023-04-12T21:42:40.903Z,72.29
2023-04-12T21:45:09.790Z,72.50
2023-04-12T21:47:39.318Z,72.79
2023-04-12T21:50:08.117Z,73.18
2023-04-12T21:52:35.279Z,73.10
2023-04-12T21:55:03.102Z,73.48
2023-04-12T21:57:31.225Z,73.56
2023-04-12T21:59:58.154Z,74.38
2023-04-12T22:02:26.051Z,74.45
2023-04-12T22:04:53.818Z,74.14
2023-04-12T22:07:21.536Z,74.92
2023-04-12T22:09:48.480Z,75.29
2023-04-12T22:12:17.887Z,75.32
2023-04-12T22:14:49.811Z,75.16
2023-04-12T22:17:18.677Z,74.61
2023-04-12T22:19:45.609Z,74.64
2023-04-12T22:22:14.180Z,74.29
2023-04-12T22:24:41.265Z,73.78
2023-04-12T22:27:09.274Z,74.21
2023-04-12T22:29:37.695Z,74.11
2023-04-12T22:32:04.863Z,73.93
2023-04-12T22:34:32.446Z,74.10
2023-04-12T22:36:59.251Z,73.86
2023-04-12T22:39:27.210Z,73.82
2023-04-12T22:41:57.150Z,73.63
2023-04-12T22:44:25.982Z,73.39
2023-04-12T22:46:56.630Z,73.35
2023-04-12T22:49:28.156Z,73.53
2023-04-12T22:51:55.827Z,72.87
2023-04-12T22:54:26.105Z,72.66
2023-04-12T22:56:52.967Z,72.63
2023-04-12T22:59:22.306Z,72.60
2023-04-12T23:01:49.318Z,72.56
2023-04-12T23:04:16.934Z,72.84
2023-04-12T23:06:44.554Z,72.73
2023-04-12T23:09:12.677Z,72.88
2023-04-12T23:11:41.074Z,73.38
2023-04-12T23:14:08.865Z,73.17
2023-04-12T23:16:42.269Z,73.37
2023-04-12T23:19:09.187Z,73.43
2023-04-12T23:21:36.322Z,73.10
2023-04-12T23:24:04.401Z,73.46
2023-04-12T23:26:34.175Z,73.55
2023-04-12T23:29:03.565Z,73.31
2023-04-12T23:31:33.626Z,73.48
2023-04-12T23:34:05.974Z,73.43
2023-04-12T23:36:33.891Z,73.68
2023-04-12T23:39:02.057Z,74.11
2023-04-12T23:41:31.493Z,73.83
2023-04-12T23:43:59.540Z,73.94
2023-04-12T23:46:27.064Z,74.23
2023-04-12T23:48:53.993Z,74.06
2023-04-12T23:51:21.999Z,73.92
2023-04-12T23:53:48.904Z,74.36
2023-04-12T23:56:15.785Z,74.26
2023-04-12T23:58:42.703Z,74.11
